Time;durP1;ratioP1;P1;durP2;ratioP2;P2;SDS_P1;SDS_P2;PMS_P1;PMS_P2;Temp;Humidity;BMP_temperature;BMP_pressure;BME280_temperature;BME280_humidity;BME280_pressure;Samples;Min_cycle;Max_cycle;Signal;HPM_P1;HPM_P2
2022/09/15 00:01:25;;;;;;;;;0.75;0.75;;;;;24.33;65.33;157221.66;4976785;28;45454;-71
2022/09/15 00:03:50;;;;;;;;;0.00;0.00;;;;;24.20;65.42;157187.09;4994677;28;45484;-71
2022/09/15 00:06:16;;;;;;;;;0.25;0.25;;;;;24.29;65.06;157209.69;4993759;28;45538;-71
2022/09/15 00:08:42;;;;;;;;;0.00;0.00;;;;;24.29;65.65;157209.69;4994710;28;45404;-71
2022/09/15 00:11:19;;;;;;;;;0.00;0.00;;;;;24.27;65.21;157205.69;4994486;28;45385;-72
2022/09/15 00:13:45;;;;;;;;;0.00;0.00;;;;;24.21;65.39;157189.78;4994647;28;45378;-72
2022/09/15 00:16:11;;;;;;;;;0.00;0.00;;;;;24.25;65.62;157199.06;4993949;28;45549;-72
2022/09/15 00:18:38;;;;;;;;;0.00;0.00;;;;;24.12;65.39;157165.84;4994140;28;45418;-71
2022/09/15 00:21:06;;;;;;;;;1.00;0.00;;;;;24.18;65.56;157181.78;4994215;28;45366;-71
2022/09/15 00:23:32;;;;;;;;;0.00;0.00;;;;;24.16;65.44;157177.81;4994443;28;45396;-72
2022/09/15 00:25:57;;;;;;;;;0.00;0.00;;;;;24.11;65.52;157164.50;4994034;28;46285;-71
2022/09/15 00:28:22;;;;;;;;;1.75;1.00;;;;;24.13;65.33;157168.50;4993607;28;49644;-71
2022/09/15 00:30:53;;;;;;;;;0.25;0.25;;;;;24.10;65.84;157161.84;4976410;28;45412;-71
2022/09/15 00:33:20;;;;;;;;;0.00;0.00;;;;;24.09;65.33;157159.22;4994286;28;45377;-71
2022/09/15 00:35:48;;;;;;;;;1.00;1.00;;;;;23.99;65.33;157133.94;4993668;28;45345;-71
2022/09/15 00:38:14;;;;;;;;;0.25;0.25;;;;;24.06;65.52;157151.22;4993431;28;45519;-72
2022/09/15 00:40:43;;;;;;;;;2.50;1.00;;;;;24.06;65.47;157151.22;4994025;28;45529;-86
2022/09/15 00:43:12;;;;;;;;;1.00;1.00;;;;;24.03;65.54;157143.25;4990926;28;45312;-86
2022/09/15 00:45:38;;;;;;;;;0.75;0.50;;;;;24.05;65.78;157147.25;4991480;27;46385;-86
2022/09/15 00:48:05;;;;;;;;;0.25;0.25;;;;;23.99;65.44;157132.63;4992305;28;45700;-86
2022/09/15 00:50:33;;;;;;;;;2.00;1.00;;;;;23.90;65.71;157110.03;4972073;28;45780;-87
2022/09/15 00:53:03;;;;;;;;;0.75;0.75;;;;;23.91;65.64;157111.41;4976812;28;45406;-86
2022/09/15 00:55:36;;;;;;;;;1.00;1.00;;;;;23.99;65.37;157132.63;4975783;28;47030;-86
2022/09/15 00:58:10;;;;;;;;;0.00;0.00;;;;;23.92;65.91;157114.03;4974555;28;45381;-85
2022/09/15 01:00:38;;;;;;;;;1.00;1.00;;;;;23.91;65.57;157112.72;4993190;28;45639;-86
2022/09/15 01:03:04;;;;;;;;;0.75;0.75;;;;;23.88;65.73;157104.75;4995693;28;45417;-86
2022/09/15 01:05:40;;;;;;;;;1.25;0.75;;;;;23.89;65.62;157107.38;4993646;28;47475;-86
2022/09/15 01:08:10;;;;;;;;;1.25;1.00;;;;;23.87;65.71;157100.75;4995690;28;45413;-86
2022/09/15 01:10:39;;;;;;;;;0.00;0.00;;;;;23.85;65.72;157095.44;4994124;28;45481;-86
2022/09/15 01:13:08;;;;;;;;;0.00;0.00;;;;;23.84;65.91;157092.81;4995563;28;45332;-87
2022/09/15 01:15:43;;;;;;;;;0.00;0.00;;;;;23.76;66.03;157072.84;4994169;28;47231;-87
2022/09/15 01:18:18;;;;;;;;;0.00;0.00;;;;;23.79;65.58;157080.84;4986029;28;45460;-87
2022/09/15 01:21:12;;;;;;;;;0.00;0.00;;;;;23.76;65.75;157074.22;4994008;28;45528;-87
2022/09/15 01:24:05;;;;;;;;;0.00;0.00;;;;;23.76;65.92;157074.22;4898035;28;45597;-87
2022/09/15 01:26:50;;;;;;;;;1.00;1.00;;;;;23.70;65.96;157058.19;4965257;28;45372;-87
2022/09/15 01:29:21;;;;;;;;;0.00;0.00;;;;;23.70;65.39;157056.88;4947031;28;45563;-87
2022/09/15 01:35:20;;;;;;;;;0.00;0.00;;;;;23.65;65.64;157044.94;4949678;28;46708;-86
2022/09/15 01:37:54;;;;;;;;;1.00;1.00;;;;;23.64;66.54;157042.25;4956210;28;45350;-87
2022/09/15 01:40:23;;;;;;;;;3.00;3.00;;;;;23.57;66.68;157024.97;4896900;28;45383;-71
2022/09/15 01:42:51;;;;;;;;;4.00;4.00;;;;;23.56;66.46;157021.03;4896364;28;45437;-71
2022/09/15 01:45:27;;;;;;;;;6.00;3.00;;;;;23.53;66.50;157014.38;4889199;28;45523;-71
2022/09/15 01:47:56;;;;;;;;;4.00;4.00;;;;;23.39;66.80;156978.53;4922496;28;45471;-71
2022/09/15 01:50:30;;;;;;;;;4.33;4.33;;;;;23.52;66.84;157011.69;4921303;28;45405;-71
2022/09/15 01:53:01;;;;;;;;;5.00;5.00;;;;;23.52;66.49;157010.38;4906825;28;45427;-71
2022/09/15 01:55:40;;;;;;;;;5.00;5.00;;;;;23.42;66.13;156985.16;4903275;28;45357;-71
2022/09/15 01:58:06;;;;;;;;;7.00;6.00;;;;;23.47;66.09;156998.44;4896508;28;46283;-71
2022/09/15 02:00:36;;;;;;;;;7.00;6.33;;;;;23.46;65.97;156994.44;4988296;28;45527;-71
2022/09/15 02:03:17;;;;;;;;;6.00;5.67;;;;;23.42;65.17;156985.16;4994456;28;45436;-71
2022/09/15 02:05:50;;;;;;;;;6.67;6.33;;;;;23.35;65.35;156967.88;4994123;28;45460;-71
2022/09/15 02:08:28;;;;;;;;;13.00;9.33;;;;;23.40;64.72;156979.84;4994110;28;47217;-71
2022/09/15 02:11:23;;;;;;;;;8.00;7.67;;;;;23.34;64.46;156965.25;4994931;28;45357;-71
2022/09/15 02:14:17;;;;;;;;;9.67;9.33;;;;;23.27;64.40;156946.66;4994045;28;45447;-71
2022/09/15 02:16:48;;;;;;;;;9.00;7.00;;;;;23.25;65.09;156939.97;4976763;28;46207;-71
2022/09/15 02:19:40;;;;;;;;;9.00;7.00;;;;;23.22;64.79;156933.34;4995580;28;45530;-72
2022/09/15 02:22:22;;;;;;;;;6.33;5.00;;;;;23.21;64.77;156930.72;4992783;28;45388;-72
2022/09/15 02:25:01;;;;;;;;;8.33;4.33;;;;;23.17;64.90;156920.09;4993808;28;45436;-71
2022/09/15 02:27:32;;;;;;;;;7.00;7.00;;;;;23.17;64.38;156920.09;4994686;28;45435;-71
2022/09/15 02:30:04;;;;;;;;;6.33;4.00;;;;;23.10;64.26;156901.50;4991994;28;46189;-72
2022/09/15 02:32:33;;;;;;;;;7.67;6.00;;;;;23.12;64.12;156906.81;4994508;28;45303;-71
2022/09/15 02:35:05;;;;;;;;;5.33;5.33;;;;;23.10;64.24;156901.50;4987558;28;45622;-71
2022/09/15 02:37:33;;;;;;;;;5.33;4.33;;;;;23.00;64.00;156876.28;4993045;28;45602;-72
2022/09/15 02:40:00;;;;;;;;;7.00;7.00;;;;;23.09;64.14;156898.88;4972218;28;46569;-71
2022/09/15 02:42:28;;;;;;;;;6.00;6.00;;;;;23.07;64.05;156893.53;4993406;28;45534;-71
2022/09/15 02:44:53;;;;;;;;;5.00;5.00;;;;;23.06;63.56;156890.84;4992735;28;45486;-71
2022/09/15 02:47:19;;;;;;;;;6.00;5.00;;;;;23.03;64.29;156884.22;4995211;28;45477;-71
2022/09/15 02:49:44;;;;;;;;;4.00;4.00;;;;;22.99;63.82;156873.59;4993256;28;46416;-71
2022/09/15 02:52:10;;;;;;;;;5.00;5.00;;;;;22.90;64.03;156851.00;4993788;28;45330;-71
2022/09/15 02:54:35;;;;;;;;;7.67;5.00;;;;;22.89;63.77;156848.34;4992106;28;45829;-71
2022/09/15 02:57:00;;;;;;;;;5.00;5.00;;;;;22.90;64.38;156849.69;4994610;28;45220;-71
2022/09/15 02:59:26;;;;;;;;;4.67;4.00;;;;;22.83;64.39;156831.06;4976171;28;47958;-71
2022/09/15 03:01:52;;;;;;;;;5.67;5.00;;;;;22.81;64.56;156827.13;4993186;28;45348;-71
2022/09/15 03:04:18;;;;;;;;;4.00;4.00;;;;;22.77;64.01;156816.47;4993739;28;45337;-71
2022/09/15 03:06:43;;;;;;;;;4.67;4.67;;;;;22.69;64.23;156796.59;4991643;28;45617;-71
2022/09/15 03:09:09;;;;;;;;;3.67;3.67;;;;;22.69;64.14;156796.59;4976372;28;45655;-71
2022/09/15 03:11:35;;;;;;;;;5.00;5.00;;;;;22.72;63.77;156804.53;4971859;28;45571;-71
2022/09/15 03:14:04;;;;;;;;;6.00;5.00;;;;;22.68;63.46;156793.91;4993967;28;45379;-72
2022/09/15 03:16:31;;;;;;;;;5.33;4.00;;;;;22.62;64.06;156778.00;4975372;28;45334;-71
2022/09/15 03:19:00;;;;;;;;;4.00;4.00;;;;;22.58;64.10;156767.38;4976881;28;48207;-71
2022/09/15 03:21:28;;;;;;;;;5.33;2.67;;;;;22.53;64.17;156754.13;4991878;28;45530;-71
2022/09/15 03:23:56;;;;;;;;;4.67;4.67;;;;;22.46;63.74;156736.84;4992162;28;45487;-71
2022/09/15 03:26:21;;;;;;;;;4.67;3.00;;;;;22.43;63.62;156727.53;4989988;28;45503;-71
2022/09/15 03:28:46;;;;;;;;;4.00;4.00;;;;;22.39;63.93;156716.97;4992518;28;52396;-71
2022/09/15 03:31:12;;;;;;;;;3.00;3.00;;;;;22.34;63.78;156706.34;4993759;28;45378;-71
2022/09/15 03:33:37;;;;;;;;;3.33;3.33;;;;;22.23;63.05;156677.13;4988380;28;45503;-71
2022/09/15 03:36:03;;;;;;;;;4.00;4.00;;;;;22.24;62.73;156678.44;4994016;28;45446;-71
2022/09/15 03:38:29;;;;;;;;;4.67;4.00;;;;;22.16;63.03;156657.19;4992932;28;46213;-71
2022/09/15 03:41:00;;;;;;;;;4.33;4.33;;;;;22.08;63.15;156638.63;4971980;28;45452;-71
2022/09/15 03:43:27;;;;;;;;;5.00;4.00;;;;;22.11;62.92;156645.25;4989474;28;45518;-71
2022/09/15 03:45:54;;;;;;;;;6.33;6.00;;;;;22.06;63.34;156632.00;4987412;28;45407;-71
2022/09/15 03:48:20;;;;;;;;;4.33;4.33;;;;;21.97;63.00;156609.44;4987906;28;47351;-71
2022/09/15 03:50:46;;;;;;;;;5.33;5.33;;;;;21.96;63.06;156606.78;4990838;28;45506;-71
2022/09/15 03:53:11;;;;;;;;;7.33;7.33;;;;;21.93;62.87;156598.78;4975626;28;45403;-71
2022/09/15 03:55:37;;;;;;;;;8.00;6.00;;;;;21.91;62.68;156594.84;4992047;28;45531;-71
2022/09/15 03:58:02;;;;;;;;;7.67;7.00;;;;;21.86;62.73;156581.53;4992962;28;46040;-71
2022/09/15 04:00:28;;;;;;;;;8.00;6.33;;;;;21.81;63.01;156568.28;4993002;27;45420;-71
2022/09/15 04:02:53;;;;;;;;;11.67;8.33;;;;;21.78;63.30;156560.34;4993467;28;45357;-71
2022/09/15 04:05:18;;;;;;;;;10.33;7.00;;;;;21.75;62.87;156551.03;4993248;28;45348;-71
2022/09/15 04:07:44;;;;;;;;;7.00;7.00;;;;;21.73;62.69;156547.09;4992057;28;46307;-71
2022/09/15 04:10:10;;;;;;;;;7.33;6.00;;;;;21.62;62.58;156519.22;4976398;28;45359;-71
2022/09/15 04:12:35;;;;;;;;;8.33;8.00;;;;;21.65;63.46;156525.84;4993471;28;45239;-71
2022/09/15 04:15:02;;;;;;;;;6.00;6.00;;;;;21.53;63.07;156495.34;4993514;28;45431;-71
2022/09/15 04:17:27;;;;;;;;;8.00;8.00;;;;;21.60;63.50;156512.59;4991695;28;46549;-71
2022/09/15 04:19:52;;;;;;;;;9.00;9.00;;;;;21.47;63.04;156480.78;4992465;28;45617;-71
2022/09/15 04:22:18;;;;;;;;;10.00;9.67;;;;;21.54;63.60;156498.00;4992294;28;45999;-71
2022/09/15 04:24:44;;;;;;;;;7.33;7.33;;;;;21.51;63.40;156490.03;4993581;28;45553;-71
2022/09/15 04:27:10;;;;;;;;;7.67;5.67;;;;;21.42;63.45;156467.50;4978260;28;46879;-71
2022/09/15 04:29:35;;;;;;;;;8.33;8.33;;;;;21.47;63.75;156479.44;4974255;28;45638;-71
2022/09/15 04:32:01;;;;;;;;;8.33;8.00;;;;;21.46;63.92;156478.09;4993627;28;45424;-71
2022/09/15 04:34:26;;;;;;;;;8.00;7.00;;;;;21.43;63.78;156468.81;4991404;28;45448;-71
2022/09/15 04:36:51;;;;;;;;;9.33;6.00;;;;;21.44;63.56;156471.47;4992889;28;45477;-71
2022/09/15 04:39:18;;;;;;;;;10.33;8.00;;;;;21.43;63.61;156468.81;4992904;28;45337;-71
2022/09/15 04:41:43;;;;;;;;;9.33;8.67;;;;;21.38;63.96;156456.84;4990102;28;45525;-88
2022/09/15 04:44:09;;;;;;;;;10.33;7.67;;;;;21.41;63.25;156463.53;4992709;28;45399;-89
2022/09/15 04:46:34;;;;;;;;;10.33;9.33;;;;;21.42;63.08;156466.16;4992590;28;45338;-90
2022/09/15 04:48:59;;;;;;;;;8.67;8.33;;;;;21.39;63.57;156458.16;4991230;28;45401;-88
2022/09/15 04:51:26;;;;;;;;;9.67;6.67;;;;;21.34;63.43;156446.22;4991438;28;45989;-89
2022/09/15 04:53:51;;;;;;;;;8.67;7.33;;;;;21.29;63.67;156432.97;4993599;28;45444;-88
2022/09/15 04:56:20;;;;;;;;;6.00;6.00;;;;;21.27;63.52;156427.66;4992848;28;47150;-89
2022/09/15 04:58:48;;;;;;;;;7.33;7.33;;;;;21.23;63.81;156417.03;4990862;28;45451;-89
2022/09/15 05:01:16;;;;;;;;;8.00;8.00;;;;;21.18;63.41;156405.09;4990441;27;45588;-89
2022/09/15 05:03:43;;;;;;;;;9.67;8.00;;;;;21.05;64.16;156370.66;4980254;28;45476;-88
2022/09/15 05:06:10;;;;;;;;;11.33;10.00;;;;;21.10;64.27;156382.59;4952215;28;46975;-87
2022/09/15 05:08:36;;;;;;;;;8.67;8.67;;;;;21.09;64.60;156381.22;4999092;28;46021;-90
2022/09/15 05:11:05;;;;;;;;;10.00;8.00;;;;;21.06;64.42;156374.59;4997918;28;45495;-89
2022/09/15 05:13:32;;;;;;;;;13.00;10.33;;;;;21.03;64.52;156366.66;4993812;28;45393;-89
2022/09/15 05:16:13;;;;;;;;;9.00;8.00;;;;;20.98;64.76;156352.09;4989243;28;47195;-89
2022/09/15 05:18:40;;;;;;;;;8.00;6.67;;;;;20.92;64.80;156337.50;4987076;28;45736;-89
2022/09/15 05:21:07;;;;;;;;;9.33;7.67;;;;;20.81;64.73;156308.31;4991101;28;45515;-91
2022/09/15 05:23:34;;;;;;;;;13.00;8.33;;;;;20.84;64.59;156316.31;4991161;28;45570;-88
2022/09/15 05:26:02;;;;;;;;;12.00;10.67;;;;;20.76;64.56;156296.38;4981528;28;45440;-90
2022/09/15 05:28:28;;;;;;;;;14.00;10.00;;;;;20.75;65.10;156292.44;4985008;28;45463;-89
2022/09/15 05:30:54;;;;;;;;;14.33;10.33;;;;;20.74;64.86;156289.75;4971791;28;46662;-89
2022/09/15 05:33:21;;;;;;;;;12.00;10.67;;;;;20.73;65.38;156287.13;4991722;28;45465;-90
2022/09/15 05:35:57;;;;;;;;;13.67;13.67;;;;;20.60;65.52;156255.34;4982761;28;46054;-79
2022/09/15 05:38:24;;;;;;;;;13.33;13.33;;;;;20.69;65.23;156276.50;4991830;28;45529;-72
2022/09/15 05:40:49;;;;;;;;;14.00;13.33;;;;;20.66;65.35;156271.22;4981830;28;45693;-71
2022/09/15 05:43:16;;;;;;;;;10.67;8.00;;;;;20.62;66.07;156260.59;4989347;28;45417;-72
2022/09/15 05:45:41;;;;;;;;;15.00;12.00;;;;;20.26;65.47;156165.16;5009553;27;45548;-75
2022/09/15 05:48:07;;;;;;;;;12.00;11.00;;;;;19.98;66.60;156093.59;4993148;28;45491;-73
2022/09/15 05:50:33;;;;;;;;;13.00;12.67;;;;;19.66;67.15;156010.06;4981342;28;45444;-73
2022/09/15 05:52:58;;;;;;;;;11.67;9.67;;;;;19.51;67.69;155971.69;4987615;28;45421;-72
2022/09/15 05:55:23;;;;;;;;;16.33;11.00;;;;;19.31;68.22;155921.31;4995037;28;47725;-71
2022/09/15 05:57:49;;;;;;;;;13.00;11.33;;;;;19.10;68.92;155867.03;4977787;28;45246;-72
2022/09/15 06:00:14;;;;;;;;;16.67;13.33;;;;;18.97;69.15;155832.63;4970905;28;45695;-72
2022/09/15 06:02:40;;;;;;;;;16.33;11.67;;;;;18.91;69.60;155818.03;4978194;28;45425;-72
2022/09/15 06:05:05;;;;;;;;;13.67;12.00;;;;;18.80;70.18;155788.97;4995319;28;45877;-72
2022/09/15 06:07:31;;;;;;;;;11.67;11.67;;;;;18.70;71.16;155762.41;4995011;28;45428;-72
2022/09/15 06:09:56;;;;;;;;;17.00;15.67;;;;;18.59;71.31;155734.63;4995577;28;45384;-72
2022/09/15 06:12:22;;;;;;;;;25.33;21.00;;;;;18.57;71.52;155729.34;4976808;28;45540;-73
2022/09/15 06:14:49;;;;;;;;;15.67;15.00;;;;;18.55;72.22;155725.34;4994748;28;47214;-70
2022/09/15 06:17:19;;;;;;;;;21.33;18.00;;;;;18.52;72.57;155716.09;4995110;28;45504;-71
2022/09/15 06:19:45;;;;;;;;;18.67;16.33;;;;;18.53;72.48;155720.03;4995337;28;45452;-71
2022/09/15 06:22:11;;;;;;;;;17.33;13.00;;;;;18.56;72.68;155727.97;4995356;28;45445;-73
2022/09/15 06:24:36;;;;;;;;;21.00;16.00;;;;;18.58;73.00;155731.97;4994686;28;46282;-72
2022/09/15 06:27:02;;;;;;;;;18.00;15.67;;;;;18.55;72.55;155724.03;4995099;28;45377;-72
2022/09/15 06:29:27;;;;;;;;;17.33;14.00;;;;;18.53;73.03;155718.72;4994946;28;45558;-72
2022/09/15 06:31:53;;;;;;;;;18.33;14.67;;;;;18.52;73.40;155716.09;4995671;28;45362;-72
2022/09/15 06:34:19;;;;;;;;;18.33;16.00;;;;;18.51;73.28;155714.75;4994651;28;46467;-71
2022/09/15 06:36:45;;;;;;;;;18.33;16.00;;;;;18.67;73.88;155754.47;4993922;28;45628;-72
2022/09/15 06:39:10;;;;;;;;;17.33;14.33;;;;;18.85;73.35;155800.88;4989023;28;45820;-72
2022/09/15 06:41:35;;;;;;;;;22.33;16.00;;;;;18.85;72.86;155802.19;4994244;28;45464;-72
2022/09/15 06:44:01;;;;;;;;;16.33;15.00;;;;;19.16;72.76;155882.94;4994323;28;45413;-72
2022/09/15 06:46:29;;;;;;;;;19.33;16.00;;;;;19.21;71.91;155894.84;4990877;28;45341;-72
2022/09/15 06:48:55;;;;;;;;;17.33;15.00;;;;;19.65;71.23;156008.75;4995107;28;45349;-72
2022/09/15 06:51:23;;;;;;;;;14.67;13.33;;;;;19.65;70.51;156008.75;4994312;28;45557;-72
2022/09/15 06:53:49;;;;;;;;;18.00;15.33;;;;;19.93;70.41;156080.34;4994415;28;45364;-71
2022/09/15 06:56:19;;;;;;;;;17.00;14.67;;;;;20.07;69.49;156116.13;4994728;28;45424;-73
2022/09/15 06:58:48;;;;;;;;;14.00;12.33;;;;;20.14;69.57;156136.00;4994605;28;45424;-78
2022/09/15 07:01:22;;;;;;;;;22.00;18.67;;;;;20.30;69.05;156175.72;4995305;28;45395;-72
2022/09/15 07:03:47;;;;;;;;;17.00;15.67;;;;;20.17;69.74;156143.94;4992120;28;45799;-72
2022/09/15 07:06:13;;;;;;;;;17.00;14.00;;;;;20.17;69.19;156143.94;4989848;28;45302;-73
2022/09/15 07:08:39;;;;;;;;;14.00;13.67;;;;;20.11;69.51;156126.69;4994715;28;45475;-72
2022/09/15 07:11:09;;;;;;;;;20.00;18.33;;;;;20.22;69.34;156157.16;4995146;28;45400;-72
2022/09/15 07:13:34;;;;;;;;;19.67;16.67;;;;;20.24;68.94;156161.16;4994120;28;45387;-71
2022/09/15 07:16:02;;;;;;;;;17.67;17.00;;;;;20.32;69.06;156182.38;4994741;28;45449;-71
2022/09/15 07:18:28;;;;;;;;;16.67;14.33;;;;;20.46;68.39;156218.13;4994686;28;45380;-72
2022/09/15 07:21:09;;;;;;;;;18.00;14.67;;;;;20.54;68.08;156238.03;4989514;28;45450;-71
2022/09/15 07:23:35;;;;;;;;;21.00;19.67;;;;;20.72;68.14;156284.44;4993843;28;46190;-72
2022/09/15 07:26:21;;;;;;;;;19.67;15.67;;;;;20.82;67.41;156312.31;4994948;28;45378;-72
2022/09/15 07:28:49;;;;;;;;;19.00;16.00;;;;;20.93;67.09;156340.19;4995072;28;45364;-72
2022/09/15 07:31:19;;;;;;;;;14.67;13.67;;;;;21.00;67.83;156358.72;5045756;28;45502;-71
2022/09/15 07:33:44;;;;;;;;;10.00;9.00;;;;;21.10;67.00;156383.91;4994725;28;47392;-71
2022/09/15 07:36:10;;;;;;;;;19.67;16.33;;;;;21.21;65.91;156413.09;4994853;28;45499;-71
2022/09/15 07:38:39;;;;;;;;;19.00;14.33;;;;;21.27;66.20;156428.97;4995088;28;45358;-71
2022/09/15 07:41:07;;;;;;;;;20.33;14.67;;;;;21.41;65.54;156463.53;4995488;28;45437;-68
2022/09/15 07:43:33;;;;;;;;;15.67;14.00;;;;;21.35;65.33;156448.84;4963065;28;48642;-68
2022/09/15 07:45:59;;;;;;;;;17.67;15.33;;;;;21.41;65.35;156463.53;4989578;28;45386;-69
2022/09/15 07:48:25;;;;;;;;;19.00;14.33;;;;;21.57;65.44;156504.66;4965899;28;45406;-69
2022/09/15 07:50:50;;;;;;;;;17.33;14.33;;;;;21.62;65.07;156519.22;4974963;28;45607;-68
2022/09/15 07:53:16;;;;;;;;;17.67;15.00;;;;;21.69;65.11;156536.47;4991443;28;45465;-68
2022/09/15 07:55:42;;;;;;;;;18.33;13.33;;;;;21.76;64.65;156555.03;4989916;28;46046;-68
2022/09/15 07:58:07;;;;;;;;;16.33;15.00;;;;;21.87;64.91;156584.22;4961738;28;45459;-68
2022/09/15 08:00:33;;;;;;;;;15.33;14.33;;;;;21.91;63.79;156593.50;4994293;28;45390;-68
2022/09/15 08:02:59;;;;;;;;;16.00;15.67;;;;;21.97;64.00;156609.44;4993840;28;45665;-68
2022/09/15 08:05:27;;;;;;;;;17.00;15.67;;;;;22.02;63.32;156621.38;4992133;28;45508;-67
2022/09/15 08:07:56;;;;;;;;;20.00;18.00;;;;;22.07;63.16;156635.94;4988220;28;45444;-68
2022/09/15 08:10:23;;;;;;;;;14.33;13.00;;;;;22.16;62.72;156657.19;4990398;28;45463;-68
2022/09/15 08:12:49;;;;;;;;;15.33;13.00;;;;;22.21;61.94;156671.81;4988631;28;45497;-68
2022/09/15 08:15:15;;;;;;;;;12.67;12.33;;;;;22.19;62.80;156666.44;4987113;28;45480;-68
2022/09/15 08:17:40;;;;;;;;;15.00;11.33;;;;;22.18;62.53;156662.50;4984314;28;46281;-68
2022/09/15 08:20:06;;;;;;;;;15.00;13.00;;;;;22.25;61.79;156682.44;4984580;28;45754;-68
2022/09/15 08:22:32;;;;;;;;;11.67;11.67;;;;;22.40;61.91;156720.91;4993198;28;46093;-67
2022/09/15 08:24:57;;;;;;;;;10.67;8.00;;;;;22.66;61.19;156788.59;4991366;28;46573;-68
2022/09/15 08:27:22;;;;;;;;;13.00;11.33;;;;;23.24;60.83;156937.34;4993849;28;45390;-68
2022/09/15 08:29:48;;;;;;;;;11.33;10.67;;;;;23.35;58.95;156967.88;4993576;28;45472;-68
2022/09/15 08:32:13;;;;;;;;;8.00;8.00;;;;;23.46;58.23;156995.78;4993262;28;46213;-68
2022/09/15 08:34:39;;;;;;;;;11.67;6.67;;;;;23.53;57.67;157013.00;4984540;28;45411;-68
2022/09/15 08:37:04;;;;;;;;;8.00;8.00;;;;;23.56;57.53;157021.03;4972730;28;45439;-68
2022/09/15 08:39:29;;;;;;;;;10.00;6.00;;;;;23.66;57.48;157046.25;4992216;28;45500;-68
2022/09/15 08:41:56;;;;;;;;;7.33;6.67;;;;;23.70;56.29;157058.19;4975607;28;45410;-68
2022/09/15 08:44:35;;;;;;;;;6.33;5.00;;;;;23.77;56.97;157075.53;4969262;28;45443;-68
2022/09/15 08:47:12;;;;;;;;;20.00;16.33;;;;;23.84;56.71;157092.81;4990320;28;45467;-68
2022/09/15 08:50:06;;;;;;;;;9.33;7.67;;;;;23.93;56.21;157116.72;4988964;28;45462;-69
2022/09/15 08:52:44;;;;;;;;;9.67;6.33;;;;;23.98;56.57;157130.00;4991183;28;46360;-69
2022/09/15 08:55:32;;;;;;;;;8.00;6.33;;;;;24.03;56.38;157143.25;4985971;28;45433;-68
2022/09/15 08:57:58;;;;;;;;;6.00;5.33;;;;;23.99;55.07;148307.22;4982558;28;45628;-69
2022/09/15 09:00:23;;;;;;;;;5.67;5.67;;;;;24.02;54.85;128614.91;4983820;28;45436;-69
2022/09/15 09:03:30;;;;;;;;;7.67;6.67;;;;;24.09;55.44;152564.94;4997202;28;46031;-68
2022/09/15 09:06:11;;;;;;;;;6.67;6.00;;;;;24.16;55.66;153642.25;4990727;28;45452;-68
2022/09/15 09:08:48;;;;;;;;;10.67;7.33;;;;;24.25;55.10;157199.06;4983427;28;45501;-70
2022/09/15 09:11:49;;;;;;;;;5.67;5.00;;;;;24.34;55.01;135359.94;4972558;28;45494;-70
2022/09/15 09:14:33;;;;;;;;;6.00;4.67;;;;;24.39;54.02;112414.47;4966646;28;48536;-70
2022/09/15 09:17:14;;;;;;;;;5.00;4.00;;;;;24.49;54.05;111233.09;4973159;28;45475;-69
2022/09/15 09:19:49;;;;;;;;;4.67;4.00;;;;;24.53;53.74;30670.81;4988708;28;45587;-70
2022/09/15 09:22:21;;;;;;;;;4.00;4.00;;;;;24.55;53.98;65823.31;4986410;28;45548;-69
2022/09/15 09:24:50;;;;;;;;;5.67;4.00;;;;;24.62;53.28;53154.97;4989908;28;47011;-69
2022/09/15 09:27:21;;;;;;;;;4.33;4.33;;;;;24.68;53.19;60036.84;4987313;28;45929;-69
2022/09/15 09:29:50;;;;;;;;;4.00;4.00;;;;;24.66;53.30;54227.69;4988441;28;45474;-69
2022/09/15 09:32:23;;;;;;;;;6.00;6.00;;;;;24.79;53.30;83754.06;4996485;28;45489;-77
2022/09/15 09:35:17;;;;;;;;;4.00;4.00;;;;;24.82;53.62;70954.13;5002371;28;45424;-79
2022/09/15 09:37:43;;;;;;;;;3.00;2.67;;;;;25.05;52.89;-377.97;4997658;28;45338;-79
2022/09/15 09:40:14;;;;;;;;;5.33;4.00;;;;;25.14;52.91;54085.91;4977744;28;45472;-81
2022/09/15 09:42:42;;;;;;;;;6.00;4.33;;;;;25.27;52.83;26485.81;4993143;28;45459;-78
2022/09/15 09:45:12;;;;;;;;;7.33;3.67;;;;;25.38;51.66;-19881.44;4991945;28;45417;-79
2022/09/15 09:47:39;;;;;;;;;2.33;2.33;;;;;25.51;51.25;-19884.75;4971984;28;45749;-79
2022/09/15 09:50:32;;;;;;;;;2.75;2.75;;;;;25.56;50.80;-19885.94;4995007;28;45426;-78
2022/09/15 09:52:58;;;;;;;;;2.25;2.00;;;;;25.71;50.64;-19889.91;4995890;28;45520;-76
2022/09/15 09:55:26;;;;;;;;;3.00;3.00;;;;;25.85;50.25;-19893.63;4988338;28;47727;-78
2022/09/15 09:57:53;;;;;;;;;4.00;4.00;;;;;25.95;49.16;-19896.13;4973603;28;45620;-88
2022/09/15 10:00:36;;;;;;;;;5.00;2.00;;;;;26.08;50.24;-19899.44;4989396;27;45815;-80
2022/09/15 10:03:29;;;;;;;;;4.33;2.33;;;;;26.21;50.05;-19902.75;4975495;28;45547;-80
2022/09/15 10:06:12;;;;;;;;;3.75;3.50;;;;;26.14;49.56;-19900.91;4990858;28;47566;-78
2022/09/15 10:09:11;;;;;;;;;3.00;2.67;;;;;26.32;49.49;-19905.66;4987461;28;45512;-78
2022/09/15 10:11:47;;;;;;;;;2.00;2.00;;;;;26.48;48.34;-19909.88;4964536;28;45979;-70
2022/09/15 10:14:29;;;;;;;;;1.00;1.00;;;;;26.61;47.76;-19913.19;4989529;27;46789;-72
2022/09/15 10:17:16;;;;;;;;;2.00;2.00;;;;;26.71;47.64;-19915.72;4982616;28;45493;-72
2022/09/15 10:19:52;;;;;;;;;2.00;1.00;;;;;26.80;47.02;-19917.94;4972069;28;45490;-72
2022/09/15 10:22:39;;;;;;;;;1.75;1.75;;;;;26.90;46.82;-19920.72;4994855;28;45434;-73
2022/09/15 10:25:19;;;;;;;;;2.75;2.00;;;;;27.10;47.07;-19925.75;4989520;28;45311;-71
2022/09/15 10:28:13;;;;;;;;;1.25;1.00;;;;;27.32;46.70;-19931.44;4994999;28;47469;-71
2022/09/15 10:31:00;;;;;;;;;2.00;2.00;;;;;27.68;46.33;-19940.66;4966350;28;45658;-72
2022/09/15 10:33:30;;;;;;;;;2.00;2.00;;;;;27.78;45.13;-19943.44;4985791;28;45501;-71
2022/09/15 10:36:02;;;;;;;;;1.50;1.00;;;;;27.71;44.87;-19941.59;4988486;28;45490;-71
2022/09/15 10:38:27;;;;;;;;;1.00;1.00;;;;;28.11;44.85;-19951.88;4966353;28;46150;-71
2022/09/15 10:41:05;;;;;;;;;1.25;1.25;;;;;28.69;44.35;-19966.78;4990358;28;47718;-74
2022/09/15 10:44:00;;;;;;;;;1.00;1.00;;;;;29.57;43.72;-19989.31;4988764;28;45702;-74
2022/09/15 10:46:32;;;;;;;;;1.25;1.25;;;;;30.46;43.94;-20012.31;4989633;28;45506;-74
2022/09/15 10:49:12;;;;;;;;;2.00;2.00;;;;;31.17;41.00;-20030.47;4994637;28;45382;-76
2022/09/15 10:51:51;;;;;;;;;2.25;2.00;;;;;31.07;39.89;-20027.81;4984134;28;45444;-74
2022/09/15 10:54:25;;;;;;;;;3.00;3.00;;;;;30.68;40.07;-20017.84;4988347;28;45493;-73
2022/09/15 10:57:10;;;;;;;;;1.25;1.25;;;;;30.40;40.64;-20010.75;4984371;28;45592;-74
2022/09/15 10:59:35;;;;;;;;;2.00;2.00;;;;;29.96;39.51;-19999.44;4976709;28;47164;-74
2022/09/15 11:02:22;;;;;;;;;2.50;1.75;;;;;29.32;41.00;-19982.84;4994628;28;45524;-74
2022/09/15 11:05:28;;;;;;;;;1.75;1.75;;;;;28.92;41.49;-19972.59;4994603;28;45434;-74
2022/09/15 11:08:22;;;;;;;;;2.00;2.00;;;;;28.34;41.70;-19957.81;4991033;28;45471;-74
2022/09/15 11:10:55;;;;;;;;;3.00;2.00;;;;;27.77;42.48;-19943.03;4978398;28;46329;-73
2022/09/15 11:13:35;;;;;;;;;2.25;2.25;;;;;27.64;42.95;-19939.75;5045258;28;45574;-75
2022/09/15 11:16:28;;;;;;;;;2.50;1.00;;;;;27.51;43.74;-19936.44;4994759;28;45354;-75
2022/09/15 11:19:09;;;;;;;;;3.00;1.00;;;;;27.40;43.62;-19933.41;4988494;28;45703;-74
2022/09/15 11:21:49;;;;;;;;;1.25;1.25;;;;;27.55;44.06;-19937.50;4993884;28;46386;-75
2022/09/15 11:24:43;;;;;;;;;1.00;1.00;;;;;28.24;43.46;-19955.19;4994052;28;45369;-75
2022/09/15 11:27:27;;;;;;;;;1.00;1.00;;;;;28.69;42.45;-19966.66;4990198;28;45322;-75
2022/09/15 11:30:04;;;;;;;;;2.25;1.00;;;;;29.05;42.43;-19976.00;4989283;28;45424;-75
2022/09/15 11:32:59;;;;;;;;;1.25;1.25;;;;;29.17;41.85;-19979.16;4994474;28;46713;-73
2022/09/15 11:35:52;;;;;;;;;5.00;1.75;;;;;29.19;40.78;-19979.69;4993335;28;45363;-72
2022/09/15 11:38:20;;;;;;;;;2.50;1.25;;;;;29.43;40.57;-19985.75;5034421;28;45510;-72
2022/09/15 11:41:13;;;;;;;;;2.00;2.00;;;;;29.63;40.38;-19991.00;5035621;28;45401;-72
2022/09/15 11:43:45;;;;;;;;;2.50;1.00;;;;;29.49;39.95;-19987.34;5034231;28;46884;-72